메인 페이지
METAR-TAF:

METAR-TAF

공항 :

바그다드 국제공항

바그다드, 이라크

위도: 33-15-45N, 경도: 44-14-04E, 고도: 35m

현재 날씨관측

예보는 35분 전, 18:00시(UTC)에 발표되었습니다.
북서3kt
온도 13°C
습도 67%
기압 1021 hPa
시정 10km 이상
1500m 미만 상공 구름 및 적란운 없음

METAR: ORBI 201800Z 32003KT CAVOK 13/07 Q1021 NOSIG

시각: 21:35 (18:35 UTC)

예보

예보는 1 시간 35분 전, 17:00시(UTC)에 발표되었습니다.
예보 대상 시간: 20일 18시부터 21일 18시까지 (UTC)
북서4kt
시정 10km 이상
1500m 미만 상공 구름 및 적란운 없음
전환 중
21일 02시부터 21일 04시까지 (UTC)
여러 방향의 바람 3kt
시정: 8000m
고도 3000ft 상공 구름 보통
고도 8000ft 상공 구름 보통

TAF: ORBI 201700Z 2018/2118 31004KT CAVOK BECMG 2102/2104 VRB03KT 8000 SCT030 SCT080

4,000개 이상의 공항 관측 자료 및 예보 (METAR 및 TAF 보고).

지도상에서 검색 가능한 기상관측소가 노란 점과 빨간 점으로 표시되어 있습니다.

기상관측소 명을 보려면 표시 위로 마우스를 이동하세요.

날씨 관측과 예보를 보려면 클릭하세요.

지도 변경 : 확대하려면 엑스 표시가 있는 녹색 버튼, 축소하려면 빼기 표시가 있는 녹색 버튼, 다음 페이지의 지도를 보려면 녹색 화살표를 클릭하세요.


METAR-TAF: